Flugplatz Pegnitz-Zipser Berg

Für EDQZ sind keine METAR/TAF Berichte vorhanden.
Es werden die Flugwettermeldungen vom Flugplatz Grafenwohr Army Air Field in 27 km Entfernung angezeigt.

Bericht für ETIC

vom 23.05. um 18:56 UTC

kein Wind

Sichtweite 10 km oder mehr

gering bewölkt in 7000 ft

aufgelockert bewölkt in 20000 ft

Temperatur 14.4°C

Taupunkt 8.8°C

Luftfeuchtigkeit 69%

Luftdruck 1017 hPa

ETIC 231856Z AUTO 00000KT 9999 FEW070 SCT200 14/09 A3004 RMK AO2 SLP173 T01440088 $

Prognose für ETIC

vom 23.05. um 14:03 UTC

Zwischen 14:00 UTC und 02:00 UTC

variable Windrichtung mit 6 kt

Sichtweite 10 km oder mehr

aufgebrochene Bewölkung in 6000 ft


Am 24.05. zwischen 02:00 und 03:00 UTC übergehend zu

variable Windrichtung mit 6 kt

Sichtweite 10 km oder mehr

aufgelockert bewölkt in 3000 ft

aufgebrochene Bewölkung in 5000 ft

TAF ETIC 231403Z 2314/2420 VRB06KT 9999 BKN060 QNH3002INS BECMG 2402/2403 VRB06KT 9999 SCT030 BKN050 QNH2994INS TX20/2315Z TN04/2404Z
Impressum